Strona główna
METAR-TAF:

METAR-TAF

Lotnisko :

Madryt, Hiszpania

Port lotniczy Madryt-Barajas

Szerokość geograficzna: 40-27N, Długość geograficzna: 003-33W, wysokość: 609 m

Aktualna obserwacja pogody

Raport powstał 21 minut temu, godzina 11:30 UTC
Wiatr 2 kt od północny zachód
Temperatura 8°C
Wilgotność 66%
Ciśnienie 1025 hPa
Widzialność 10 km lub więcej
Brak chmur poniżej 1500 m i brak chmur cumulonimbus

METAR: LEMD 181130Z 31002KT CAVOK 08/02 Q1025 NOSIG

czas: 12:51 (11:51 UTC)

Prognoza

Raport powstał 51 minut temu, godzina 11:00 UTC
Prognoza ważna od 18 godzina 12 UTC do 19 godzina 18 UTC
Wiatr 5 kt z kierunków zmiennych
Widzialność 10 km lub więcej
Brak chmur poniżej 1500 m i brak chmur cumulonimbus
Przejściowo
od 18 godzina 20 UTC do 19 godzina 09 UTC
Wiatr 6 kt od północ

TAF: LEMD 181100Z 1812/1918 VRB05KT CAVOK TX15/1915Z TN00/1906Z TEMPO 1820/1909 01006KT

Obserwacja i prognoza pogody dla ponad 4000 lotnisk (raport METAR i TAF).

Dostępne stacje oznaczono żółtymi i czerwonymi punktami na mapie.

Najedź kursorem aby zobaczyć nazwę stacji.

Kliknij aby zobaczyć obserwacje i prognozy pogody.

Aby zmienić mapę: kliknij na zielony przycisk z czarnym krzyżykiem, aby powiększyć; na zielony przycisk z myślnikiem, aby pomniejszyć; na zielone strzałki, aby przejść do map sąsiednich.


METAR-TAF: